createdAt,value
2023-05-19T00:01:28.462Z,7.53
2023-05-19T00:06:33.406Z,8.27
2023-05-19T00:11:38.272Z,8.02
2023-05-19T00:16:42.482Z,8.30
2023-05-19T00:21:45.456Z,7.35
2023-05-19T00:26:48.495Z,8.43
2023-05-19T00:31:51.449Z,11.18
2023-05-19T00:36:54.343Z,8.88
2023-05-19T00:41:57.703Z,9.50
2023-05-19T00:47:01.530Z,8.13
2023-05-19T00:52:07.070Z,9.77
2023-05-19T00:57:10.157Z,11.02
2023-05-19T01:02:13.587Z,11.68
2023-05-19T01:07:16.783Z,9.82
2023-05-19T01:12:20.051Z,14.93
2023-05-19T01:22:50.542Z,12.48
2023-05-19T01:28:12.197Z,10.77
2023-05-19T01:33:15.885Z,10.55
2023-05-19T01:38:21.082Z,13.90
2023-05-19T01:43:26.592Z,14.23
2023-05-19T01:48:30.915Z,15.13
2023-05-19T01:53:34.089Z,14.60
2023-05-19T01:58:49.038Z,11.07
2023-05-19T02:04:15.187Z,9.45
2023-05-19T02:09:33.361Z,9.27
2023-05-19T02:14:45.282Z,8.00
2023-05-19T02:19:48.501Z,9.20
2023-05-19T02:24:51.981Z,8.20
2023-05-19T02:29:55.113Z,9.30
2023-05-19T02:34:57.986Z,13.73
2023-05-19T02:40:01.128Z,15.02
2023-05-19T02:45:07.474Z,13.85
2023-05-19T02:50:10.650Z,14.82
2023-05-19T02:55:17.336Z,11.25
2023-05-19T03:00:20.479Z,11.02
2023-05-19T03:05:23.582Z,11.52
2023-05-19T03:15:29.545Z,10.30
2023-05-19T03:20:32.752Z,10.68
2023-05-19T03:25:35.920Z,9.82
2023-05-19T03:30:39.079Z,8.30
2023-05-19T03:35:53.264Z,11.23
2023-05-19T03:40:56.646Z,8.55
2023-05-19T03:46:00.172Z,8.80
2023-05-19T03:51:21.911Z,7.53
2023-05-19T03:56:28.088Z,8.18
2023-05-19T04:01:30.986Z,7.60
2023-05-19T04:06:52.410Z,8.05
2023-05-19T04:11:56.405Z,7.55
2023-05-19T04:17:00.592Z,8.20
2023-05-19T04:22:03.530Z,8.15
2023-05-19T04:27:12.292Z,8.23
2023-05-19T04:32:18.140Z,8.25
2023-05-19T04:37:21.853Z,8.40
2023-05-19T04:42:26.400Z,9.00
2023-05-19T04:47:31.479Z,8.57
2023-05-19T04:52:34.558Z,8.93
2023-05-19T04:57:39.403Z,9.00
2023-05-19T05:02:43.805Z,8.55
2023-05-19T05:07:48.204Z,9.80
2023-05-19T05:12:52.268Z,9.05
2023-05-19T05:17:56.009Z,9.55
2023-05-19T05:23:02.323Z,9.27
2023-05-19T05:28:07.634Z,9.48
2023-05-19T05:33:12.950Z,9.77
2023-05-19T05:38:17.336Z,9.75
2023-05-19T05:43:20.321Z,10.25
2023-05-19T05:48:30.115Z,9.70
2023-05-19T05:53:37.433Z,9.45
2023-05-19T05:58:40.948Z,10.23
2023-05-19T06:03:45.267Z,10.13
2023-05-19T06:08:52.689Z,10.02
2023-05-19T06:13:56.459Z,10.10
2023-05-19T06:19:28.847Z,11.63
2023-05-19T06:24:50.184Z,12.02
2023-05-19T06:29:53.426Z,13.52
2023-05-19T06:34:56.543Z,13.43
2023-05-19T06:39:59.603Z,13.80
2023-05-19T06:45:03.412Z,13.43
2023-05-19T06:50:10.064Z,13.18
2023-05-19T06:55:15.598Z,12.15
2023-05-19T07:00:20.599Z,13.75
2023-05-19T07:05:27.149Z,12.90
2023-05-19T07:10:33.913Z,14.23
2023-05-19T07:15:37.409Z,13.60
2023-05-19T07:20:41.696Z,13.73
2023-05-19T07:25:44.629Z,12.30
2023-05-19T07:30:47.656Z,13.15
2023-05-19T07:35:50.593Z,12.98
2023-05-19T07:40:53.568Z,12.02
2023-05-19T07:45:56.695Z,11.00
2023-05-19T07:51:00.184Z,10.88
2023-05-19T07:56:03.814Z,10.60
2023-05-19T08:01:06.865Z,9.38
2023-05-19T08:06:09.892Z,9.95
2023-05-19T08:11:12.873Z,8.95
2023-05-19T08:16:16.772Z,9.68
2023-05-19T08:21:19.803Z,9.30
2023-05-19T08:26:23.083Z,6.25
2023-05-19T08:31:26.287Z,6.82
2023-05-19T08:36:29.690Z,5.47
2023-05-19T08:41:32.983Z,5.80
2023-05-19T08:46:36.381Z,6.05
2023-05-19T08:51:50.967Z,5.63
2023-05-19T08:56:54.209Z,5.20
2023-05-19T09:01:57.672Z,5.20
2023-05-19T09:07:04.381Z,4.63
2023-05-19T09:12:07.438Z,4.63
2023-05-19T09:17:10.843Z,4.85
2023-05-19T09:22:16.369Z,5.28
2023-05-19T09:27:25.316Z,5.20
2023-05-19T09:32:28.609Z,4.60
2023-05-19T09:37:32.637Z,4.93
2023-05-19T09:42:54.652Z,4.65
2023-05-19T09:47:58.039Z,5.22
2023-05-19T09:53:02.069Z,4.75
2023-05-19T09:58:05.173Z,5.00
2023-05-19T10:03:09.599Z,5.28
2023-05-19T10:08:13.118Z,4.70
2023-05-19T10:13:17.066Z,4.63
2023-05-19T10:18:21.324Z,4.90
2023-05-19T10:23:24.394Z,4.88
2023-05-19T10:28:38.428Z,3.90
2023-05-19T10:34:15.270Z,4.00
2023-05-19T10:39:25.935Z,3.40
2023-05-19T10:44:52.677Z,4.10
2023-05-19T10:49:56.388Z,4.15
2023-05-19T10:55:01.179Z,3.78
2023-05-19T11:00:29.028Z,4.20
2023-05-19T11:05:32.339Z,4.05
2023-05-19T11:10:35.729Z,4.05
2023-05-19T11:15:43.201Z,3.78
2023-05-19T11:20:58.274Z,3.88
2023-05-19T11:26:02.846Z,4.10
2023-05-19T11:31:08.392Z,4.70
2023-05-19T11:36:12.835Z,4.10
2023-05-19T11:41:18.844Z,4.47
2023-05-19T11:46:23.332Z,4.75
2023-05-19T11:51:26.670Z,4.63
2023-05-19T11:56:34.951Z,4.60
2023-05-19T12:01:38.101Z,4.57
2023-05-19T12:06:41.215Z,4.80
2023-05-19T12:11:44.406Z,4.05
2023-05-19T12:16:47.809Z,3.58
2023-05-19T12:21:51.755Z,4.47
2023-05-19T12:27:07.729Z,4.05
2023-05-19T12:32:10.798Z,4.60
2023-05-19T12:37:14.241Z,4.07
2023-05-19T12:42:17.061Z,4.20
2023-05-19T12:47:20.731Z,4.80
2023-05-19T12:52:24.086Z,4.50
2023-05-19T12:57:28.127Z,4.80
2023-05-19T13:02:31.145Z,4.50
2023-05-19T13:07:35.935Z,4.93
2023-05-19T13:12:39.044Z,4.30
2023-05-19T13:17:42.414Z,4.50
2023-05-19T13:22:45.963Z,5.20
2023-05-19T13:27:49.862Z,5.10
2023-05-19T13:32:52.962Z,5.20
2023-05-19T13:37:56.419Z,5.35
2023-05-19T13:42:59.679Z,5.15
2023-05-19T13:48:02.936Z,5.28
2023-05-19T13:53:06.145Z,4.97
2023-05-19T13:58:11.268Z,5.07
2023-05-19T14:03:17.571Z,4.57
2023-05-19T14:08:21.128Z,4.55
2023-05-19T14:18:32.714Z,6.97
2023-05-19T14:23:35.808Z,5.95
2023-05-19T14:28:38.941Z,4.65
2023-05-19T14:33:41.930Z,4.90
2023-05-19T14:38:45.025Z,5.07
2023-05-19T14:43:48.909Z,8.40
2023-05-19T14:48:51.974Z,6.50
2023-05-19T14:53:54.994Z,5.07
2023-05-19T14:58:57.953Z,5.68
2023-05-19T15:04:01.072Z,5.30
2023-05-19T15:09:04.232Z,5.65
2023-05-19T15:14:07.205Z,6.90
2023-05-19T15:19:10.572Z,5.63
2023-05-19T15:24:13.621Z,5.45
2023-05-19T15:29:16.553Z,5.38
2023-05-19T15:34:20.281Z,5.72
2023-05-19T15:39:23.646Z,5.40
2023-05-19T15:44:28.336Z,5.78
2023-05-19T15:49:32.021Z,5.80
2023-05-19T15:54:35.150Z,5.68
2023-05-19T15:59:38.131Z,6.05
2023-05-19T16:04:41.224Z,6.45
2023-05-19T16:09:44.277Z,6.78
2023-05-19T16:14:47.382Z,6.97
2023-05-19T16:19:50.739Z,10.57
2023-05-19T16:24:53.597Z,44.78
2023-05-19T16:29:56.690Z,58.33
2023-05-19T16:34:59.793Z,16.80
2023-05-19T16:40:03.104Z,11.82
2023-05-19T16:45:07.955Z,13.75
2023-05-19T16:50:11.631Z,14.77
2023-05-19T16:55:19.853Z,14.13
2023-05-19T17:00:23.620Z,16.48
2023-05-19T17:05:28.034Z,27.58
2023-05-19T17:10:31.165Z,15.85
2023-05-19T17:15:35.453Z,17.70
2023-05-19T17:20:38.658Z,18.38
2023-05-19T17:25:41.554Z,18.15
2023-05-19T17:30:44.771Z,17.10
2023-05-19T17:35:47.934Z,16.33
2023-05-19T17:40:51.236Z,17.02
2023-05-19T17:45:54.508Z,16.67
2023-05-19T17:50:57.986Z,17.20
2023-05-19T17:56:03.285Z,17.65
2023-05-19T18:01:26.006Z,17.25
2023-05-19T18:06:36.091Z,17.35
2023-05-19T18:11:39.612Z,15.93
2023-05-19T18:16:42.774Z,13.90
2023-05-19T18:22:04.837Z,12.32
2023-05-19T18:27:07.740Z,11.38
2023-05-19T18:32:10.990Z,12.43
2023-05-19T18:37:32.871Z,12.27
2023-05-19T18:42:36.038Z,11.45
2023-05-19T18:47:39.146Z,11.10
2023-05-19T18:52:42.191Z,11.00
2023-05-19T18:57:45.174Z,10.82
2023-05-19T19:02:48.361Z,11.27
2023-05-19T19:07:52.661Z,10.32
2023-05-19T19:12:55.888Z,10.52
2023-05-19T19:17:58.970Z,10.27
2023-05-19T19:23:05.325Z,10.85
2023-05-19T19:28:08.504Z,10.35
2023-05-19T19:33:11.672Z,9.48
2023-05-19T19:38:14.883Z,25.60
2023-05-19T19:43:18.047Z,24.80
2023-05-19T19:48:21.448Z,22.10
2023-05-19T19:53:24.523Z,22.88
2023-05-19T19:58:28.899Z,20.45
2023-05-19T20:03:33.649Z,13.52
2023-05-19T20:08:36.700Z,10.50
2023-05-19T20:13:39.723Z,6.72
2023-05-19T20:18:42.685Z,6.80
2023-05-19T20:23:46.549Z,5.82
2023-05-19T20:28:49.573Z,5.45
2023-05-19T20:33:52.626Z,5.07
2023-05-19T20:38:55.748Z,4.97
2023-05-19T20:43:58.781Z,4.90
2023-05-19T20:49:01.821Z,5.20
2023-05-19T20:54:23.145Z,4.57
2023-05-19T20:59:26.282Z,5.15
2023-05-19T21:04:29.440Z,4.63
2023-05-19T21:09:32.497Z,4.63
2023-05-19T21:14:35.759Z,4.60
2023-05-19T21:19:38.769Z,4.53
2023-05-19T21:24:42.154Z,4.85
2023-05-19T21:29:45.139Z,4.95
2023-05-19T21:34:48.164Z,4.90
2023-05-19T21:40:10.050Z,4.22
2023-05-19T21:45:13.336Z,5.20
2023-05-19T21:50:17.671Z,4.68
2023-05-19T21:55:22.262Z,4.90
2023-05-19T22:00:25.894Z,4.63
2023-05-19T22:05:32.598Z,5.30
2023-05-19T22:10:37.429Z,4.88
2023-05-19T22:15:58.911Z,5.03
2023-05-19T22:21:01.886Z,5.35
2023-05-19T22:26:04.869Z,5.03
2023-05-19T22:31:07.841Z,5.03
2023-05-19T22:36:11.365Z,4.97
2023-05-19T22:41:14.542Z,4.90
2023-05-19T22:46:18.038Z,4.85
2023-05-19T22:51:21.236Z,4.75
2023-05-19T22:56:24.343Z,4.40
2023-05-19T23:01:27.620Z,4.53
2023-05-19T23:06:31.739Z,4.00
2023-05-19T23:11:36.068Z,4.30
2023-05-19T23:16:39.108Z,4.35
2023-05-19T23:21:42.038Z,4.30
2023-05-19T23:26:45.031Z,4.18
2023-05-19T23:31:48.025Z,4.30
2023-05-19T23:36:51.140Z,4.22
2023-05-19T23:41:54.010Z,4.50
2023-05-19T23:51:59.944Z,4.57
